Time;durP1;ratioP1;P1;durP2;ratioP2;P2;SDS_P1;SDS_P2;PMS_P1;PMS_P2;Temp;Humidity;BMP_temperature;BMP_pressure;BME280_temperature;BME280_humidity;BME280_pressure;Samples;Min_cycle;Max_cycle;Signal;HPM_P1;HPM_P2
2023/07/23 00:00:12;;;;;;;4.20;3.80;;;19.50;62.70;;;;;;5043470;28;20415;-72
2023/07/23 00:02:39;;;;;;;4.22;3.63;;;19.40;64.20;;;;;;5042029;28;21182;-75
2023/07/23 00:05:06;;;;;;;4.50;3.70;;;19.40;66.00;;;;;;5040770;28;20419;-73
2023/07/23 00:07:34;;;;;;;5.63;4.30;;;19.40;63.60;;;;;;5039897;28;20456;-73
2023/07/23 00:10:01;;;;;;;4.90;4.00;;;19.30;64.00;;;;;;5065498;22;20509;-72
2023/07/23 00:12:27;;;;;;;5.13;4.40;;;19.30;67.20;;;;;;5048869;28;20425;-72
2023/07/23 00:14:54;;;;;;;4.20;3.80;;;19.30;67.50;;;;;;5050736;28;20914;-71
2023/07/23 00:17:21;;;;;;;4.47;3.80;;;19.20;67.70;;;;;;5046029;28;20446;-72
2023/07/23 00:19:48;;;;;;;6.10;4.30;;;19.20;66.10;;;;;;5050487;28;20911;-71
2023/07/23 00:22:14;;;;;;;4.53;3.72;;;19.20;65.90;;;;;;5061339;28;20416;-70
2023/07/23 00:24:42;;;;;;;4.80;4.20;;;19.20;65.50;;;;;;5049872;28;20440;-69
2023/07/23 00:27:10;;;;;;;4.70;4.20;;;19.20;63.90;;;;;;5048726;28;20508;-70
2023/07/23 00:29:37;;;;;;;5.20;4.40;;;19.20;64.40;;;;;;5051046;28;20436;-71
2023/07/23 00:32:04;;;;;;;4.45;4.05;;;19.20;63.30;;;;;;5048485;28;20432;-70
2023/07/23 00:34:31;;;;;;;4.57;4.18;;;19.20;64.40;;;;;;5055672;28;20758;-72
2023/07/23 00:36:57;;;;;;;4.60;3.93;;;19.30;64.10;;;;;;5050017;28;20537;-72
2023/07/23 00:39:24;;;;;;;4.70;4.10;;;19.30;64.70;;;;;;5055388;28;20434;-73
2023/07/23 00:41:52;;;;;;;5.38;4.10;;;19.20;66.40;;;;;;5058285;28;20416;-72
2023/07/23 00:44:19;;;;;;;5.03;4.53;;;19.20;64.40;;;;;;5052812;28;20436;-72
2023/07/23 00:46:46;;;;;;;4.77;4.27;;;19.20;64.00;;;;;;5050415;28;20440;-72
2023/07/23 00:49:13;;;;;;;6.43;4.90;;;19.20;64.70;;;;;;5044739;28;20444;-70
2023/07/23 00:51:40;;;;;;;6.70;4.50;;;19.20;65.00;;;;;;5057556;28;20431;-71
2023/07/23 00:54:08;;;;;;;4.47;4.07;;;19.20;64.10;;;;;;5047085;28;20439;-71
2023/07/23 00:56:36;;;;;;;5.60;4.40;;;19.20;64.00;;;;;;5049090;28;20515;-72
2023/07/23 00:59:04;;;;;;;4.45;4.00;;;19.20;63.30;;;;;;5053508;28;20439;-72
2023/07/23 01:01:31;;;;;;;5.10;4.60;;;19.20;62.50;;;;;;5052078;28;20497;-72
2023/07/23 01:03:57;;;;;;;4.32;3.92;;;19.10;62.20;;;;;;5053739;28;20452;-71
2023/07/23 01:06:26;;;;;;;5.63;4.10;;;19.20;62.10;;;;;;5049428;28;20538;-71
2023/07/23 01:08:55;;;;;;;4.75;4.25;;;19.20;61.60;;;;;;5055244;28;20417;-70
2023/07/23 01:11:22;;;;;;;4.70;4.20;;;19.20;62.30;;;;;;5041017;28;20792;-71
2023/07/23 01:13:51;;;;;;;5.50;5.00;;;19.20;61.70;;;;;;5049288;28;20436;-71
2023/07/23 01:16:20;;;;;;;6.00;4.80;;;19.20;62.20;;;;;;5048750;28;20860;-71
2023/07/23 01:18:47;;;;;;;5.53;4.80;;;19.20;62.50;;;;;;5054960;28;20528;-70
2023/07/23 01:21:14;;;;;;;4.97;4.47;;;19.10;62.70;;;;;;5062605;28;20438;-72
2023/07/23 01:23:42;;;;;;;6.63;5.07;;;19.10;62.80;;;;;;5052534;28;20906;-71
2023/07/23 01:26:09;;;;;;;5.22;4.72;;;19.10;63.20;;;;;;5054076;28;20768;-70
2023/07/23 01:28:36;;;;;;;5.10;4.60;;;19.10;63.70;;;;;;5051816;28;20944;-70
2023/07/23 01:31:03;;;;;;;7.57;4.90;;;19.10;63.80;;;;;;5053164;28;20442;-71
2023/07/23 01:33:30;;;;;;;5.47;4.40;;;19.10;64.20;;;;;;5053959;28;20887;-71
2023/07/23 01:35:59;;;;;;;5.20;4.70;;;19.10;64.00;;;;;;5048604;28;20769;-70
2023/07/23 01:38:26;;;;;;;5.03;4.07;;;19.10;64.20;;;;;;5062524;28;20413;-70
2023/07/23 01:40:54;;;;;;;5.07;4.53;;;19.10;64.80;;;;;;5050449;28;20451;-70
2023/07/23 01:43:21;;;;;;;4.90;4.40;;;19.10;64.30;;;;;;5052427;28;20436;-71
2023/07/23 01:45:48;;;;;;;5.20;4.70;;;19.10;64.80;;;;;;5044597;28;20424;-72
2023/07/23 01:48:16;;;;;;;5.05;4.55;;;19.10;64.90;;;;;;5051062;28;20417;-71
2023/07/23 01:50:44;;;;;;;5.00;4.53;;;19.10;63.00;;;;;;5052401;28;20438;-70
2023/07/23 01:53:10;;;;;;;4.80;4.30;;;19.00;63.70;;;;;;5065258;28;20423;-70
2023/07/23 01:55:37;;;;;;;5.10;4.60;;;19.00;62.60;;;;;;5057249;28;20861;-71
2023/07/23 01:58:05;;;;;;;4.68;4.18;;;19.00;62.30;;;;;;5049811;28;20433;-71
2023/07/23 02:00:32;;;;;;;5.03;4.60;;;19.00;62.00;;;;;;5059135;28;20433;-70
2023/07/23 02:02:59;;;;;;;5.17;4.67;;;19.00;61.70;;;;;;5052740;28;20431;-70
2023/07/23 02:05:26;;;;;;;5.20;4.70;;;19.00;61.50;;;;;;5049552;28;20583;-70
2023/07/23 02:07:53;;;;;;;4.90;4.35;;;19.00;61.30;;;;;;5059064;28;20750;-72
2023/07/23 02:10:21;;;;;;;4.80;4.30;;;19.00;61.40;;;;;;5062924;28;20503;-72
2023/07/23 02:12:48;;;;;;;4.60;4.20;;;19.00;61.40;;;;;;5045457;28;20892;-72
2023/07/23 02:15:16;;;;;;;6.65;4.88;;;19.00;61.20;;;;;;5050082;28;20459;-72
2023/07/23 02:17:43;;;;;;;6.15;4.25;;;19.00;61.00;;;;;;5056201;28;20439;-72
2023/07/23 02:20:11;;;;;;;5.20;4.20;;;19.00;61.10;;;;;;5048923;28;20421;-73
2023/07/23 02:22:38;;;;;;;5.00;4.17;;;19.00;61.00;;;;;;5050039;28;20430;-73
2023/07/23 02:25:05;;;;;;;5.43;4.38;;;19.00;61.00;;;;;;5056593;28;20903;-71
2023/07/23 02:27:34;;;;;;;5.22;4.20;;;19.00;61.10;;;;;;5047905;28;20898;-73
2023/07/23 02:30:01;;;;;;;4.60;3.85;;;18.90;60.90;;;;;;5053139;28;20752;-72
2023/07/23 02:32:29;;;;;;;4.70;4.00;;;18.90;60.70;;;;;;5048485;28;20440;-71
2023/07/23 02:34:56;;;;;;;5.15;4.20;;;18.90;60.40;;;;;;5047738;28;20436;-71
2023/07/23 02:37:22;;;;;;;4.40;4.00;;;19.00;60.90;;;;;;5050862;28;20540;-71
2023/07/23 02:39:49;;;;;;;4.50;4.07;;;19.00;60.40;;;;;;5058264;28;20427;-72
2023/07/23 02:42:16;;;;;;;4.40;3.97;;;19.00;60.20;;;;;;5041965;28;20441;-71
2023/07/23 02:44:42;;;;;;;4.43;3.90;;;19.00;60.50;;;;;;5045452;28;20512;-73
2023/07/23 02:47:09;;;;;;;5.03;3.60;;;19.00;59.70;;;;;;5053217;28;20450;-72
2023/07/23 02:49:38;;;;;;;4.93;3.92;;;19.00;59.80;;;;;;5064367;28;20419;-71
2023/07/23 02:52:05;;;;;;;4.57;3.67;;;19.00;59.50;;;;;;5044122;28;20443;-71
2023/07/23 02:54:32;;;;;;;4.88;4.03;;;19.00;58.90;;;;;;5053275;28;20466;-72
2023/07/23 02:56:59;;;;;;;4.05;3.63;;;19.10;59.00;;;;;;5050347;28;20679;-72
2023/07/23 02:59:25;;;;;;;4.60;3.60;;;19.10;58.50;;;;;;5052361;28;20428;-72
2023/07/23 03:01:52;;;;;;;4.23;3.83;;;19.10;59.40;;;;;;5047727;28;20436;-72
2023/07/23 03:04:19;;;;;;;4.25;3.85;;;19.10;58.80;;;;;;5056246;28;20490;-72
2023/07/23 03:06:48;;;;;;;5.35;3.45;;;19.10;58.50;;;;;;5062548;28;20431;-72
2023/07/23 03:09:15;;;;;;;4.28;3.58;;;19.10;58.70;;;;;;5048727;28;20425;-75
2023/07/23 03:11:41;;;;;;;3.90;3.50;;;19.10;58.10;;;;;;5049511;28;20441;-73
2023/07/23 03:14:08;;;;;;;4.38;3.97;;;19.10;58.00;;;;;;5046872;28;20436;-75
2023/07/23 03:16:35;;;;;;;5.90;4.07;;;19.20;58.30;;;;;;5049834;28;20438;-72
2023/07/23 03:19:01;;;;;;;4.43;3.60;;;19.20;58.20;;;;;;5053908;28;20454;-73
2023/07/23 03:21:28;;;;;;;4.00;3.60;;;19.20;58.00;;;;;;5059533;28;20423;-72
2023/07/23 03:23:56;;;;;;;3.90;3.50;;;19.20;57.80;;;;;;5049084;28;20417;-74
2023/07/23 03:26:23;;;;;;;4.20;3.80;;;19.20;57.40;;;;;;5048424;28;20800;-72
2023/07/23 03:28:50;;;;;;;4.43;3.33;;;19.20;57.30;;;;;;5053879;28;20451;-72
2023/07/23 03:31:16;;;;;;;4.60;3.50;;;19.20;57.20;;;;;;5060028;28;20893;-72
2023/07/23 03:33:43;;;;;;;3.83;3.42;;;19.20;57.00;;;;;;5049014;28;20500;-74
2023/07/23 03:36:11;;;;;;;4.05;3.60;;;19.20;57.10;;;;;;5048185;28;20544;-72
2023/07/23 03:38:38;;;;;;;4.38;3.40;;;19.20;57.60;;;;;;5049063;28;20431;-76
2023/07/23 03:41:06;;;;;;;4.57;3.65;;;19.20;57.00;;;;;;5054595;28;20551;-74
2023/07/23 03:43:32;;;;;;;4.20;3.67;;;19.20;57.60;;;;;;5039826;28;20440;-74
2023/07/23 03:45:59;;;;;;;4.85;3.55;;;19.20;57.20;;;;;;5043687;28;20546;-72
2023/07/23 03:48:26;;;;;;;5.80;4.00;;;19.20;57.10;;;;;;5055891;28;20435;-73
2023/07/23 03:50:53;;;;;;;4.10;3.45;;;19.10;56.90;;;;;;5050158;28;20417;-71
2023/07/23 03:53:19;;;;;;;5.00;3.65;;;19.10;57.20;;;;;;5045509;28;20437;-72
2023/07/23 03:55:46;;;;;;;4.33;3.93;;;19.10;57.30;;;;;;5054576;28;20425;-72
2023/07/23 03:58:14;;;;;;;4.22;3.50;;;19.10;57.50;;;;;;5049159;28;20433;-73
2023/07/23 04:00:41;;;;;;;3.75;3.35;;;19.00;57.50;;;;;;5051386;28;20461;-71
2023/07/23 04:03:08;;;;;;;5.50;3.45;;;19.00;57.80;;;;;;5050939;28;20432;-71
2023/07/23 04:05:35;;;;;;;4.20;3.35;;;19.00;57.80;;;;;;5062867;28;20416;-71
2023/07/23 04:08:02;;;;;;;4.32;3.53;;;19.00;58.10;;;;;;5057561;28;20422;-73
2023/07/23 04:10:29;;;;;;;5.20;3.80;;;19.00;58.20;;;;;;5041388;28;20873;-71
2023/07/23 04:12:55;;;;;;;4.63;3.67;;;19.00;58.50;;;;;;5049036;28;20508;-71
2023/07/23 04:15:23;;;;;;;4.00;3.50;;;19.00;57.90;;;;;;5050481;28;20517;-71
2023/07/23 04:17:50;;;;;;;3.80;3.40;;;19.00;58.40;;;;;;5042791;28;20433;-71
2023/07/23 04:20:17;;;;;;;3.88;3.58;;;19.00;57.90;;;;;;5059493;28;20416;-70
2023/07/23 04:22:44;;;;;;;3.92;3.53;;;19.00;58.50;;;;;;5055536;28;20842;-71
2023/07/23 04:25:11;;;;;;;4.05;3.40;;;19.00;58.60;;;;;;5047474;28;20425;-71
2023/07/23 04:27:38;;;;;;;6.20;3.50;;;19.00;57.90;;;;;;5055511;28;20421;-71
2023/07/23 04:30:05;;;;;;;3.97;3.30;;;19.00;57.50;;;;;;5046190;28;20437;-73
2023/07/23 04:32:33;;;;;;;3.72;3.17;;;19.00;57.80;;;;;;5054188;28;20415;-74
2023/07/23 04:35:00;;;;;;;3.92;3.40;;;19.10;58.00;;;;;;5049396;28;20429;-71
2023/07/23 04:37:27;;;;;;;4.97;3.20;;;19.10;57.40;;;;;;5050147;28;20452;-70
2023/07/23 04:39:53;;;;;;;4.30;3.40;;;19.10;57.70;;;;;;5057449;28;20886;-73
2023/07/23 04:42:20;;;;;;;3.80;3.40;;;19.10;57.40;;;;;;5051357;28;20896;-74
2023/07/23 04:44:47;;;;;;;4.00;3.42;;;19.20;57.40;;;;;;5051318;28;20450;-73
2023/07/23 04:47:13;;;;;;;3.85;3.55;;;19.20;57.70;;;;;;5047349;28;20433;-71
2023/07/23 04:49:41;;;;;;;4.82;3.30;;;19.10;57.80;;;;;;5046167;28;20423;-74
2023/07/23 04:52:08;;;;;;;3.90;3.47;;;19.20;57.50;;;;;;5043606;28;20436;-74
2023/07/23 04:54:35;;;;;;;4.40;3.20;;;19.20;58.30;;;;;;5050178;28;20537;-73
2023/07/23 04:57:01;;;;;;;4.40;3.30;;;19.20;57.70;;;;;;5048112;28;20961;-73
2023/07/23 04:59:28;;;;;;;4.18;3.33;;;19.20;58.50;;;;;;5047997;28;20483;-73
2023/07/23 05:01:55;;;;;;;4.63;3.08;;;19.20;57.80;;;;;;5055108;28;20454;-71
2023/07/23 05:04:22;;;;;;;3.80;3.30;;;19.30;57.70;;;;;;5051604;28;20863;-72
2023/07/23 05:06:50;;;;;;;4.10;3.25;;;19.20;58.70;;;;;;5060433;28;20423;-72
2023/07/23 05:09:16;;;;;;;5.00;3.50;;;19.20;58.40;;;;;;5058685;28;20683;-73
2023/07/23 05:11:43;;;;;;;4.70;3.53;;;19.20;58.90;;;;;;5051555;28;20433;-72
2023/07/23 05:14:10;;;;;;;4.68;3.00;;;19.30;58.80;;;;;;5047166;28;20490;-72
2023/07/23 05:16:36;;;;;;;4.57;3.30;;;19.30;59.30;;;;;;5056302;28;20431;-73
2023/07/23 05:19:03;;;;;;;4.10;3.30;;;19.20;59.30;;;;;;5052370;28;20428;-72
2023/07/23 05:21:34;;;;;;;4.20;3.30;;;19.30;58.90;;;;;;5051784;28;20466;-72
2023/07/23 05:24:02;;;;;;;3.90;3.05;;;19.30;59.20;;;;;;5051628;28;20485;-74
2023/07/23 05:26:29;;;;;;;4.53;3.40;;;19.30;58.90;;;;;;5054355;28;20901;-72
2023/07/23 05:28:56;;;;;;;3.72;3.25;;;19.30;59.60;;;;;;5047145;28;20433;-73
2023/07/23 05:31:22;;;;;;;4.50;3.03;;;19.30;59.70;;;;;;5049501;28;20804;-72
2023/07/23 05:33:49;;;;;;;4.75;3.80;;;19.30;59.70;;;;;;5051462;28;20439;-72
2023/07/23 05:36:16;;;;;;;3.80;3.30;;;19.30;59.10;;;;;;5058006;28;20419;-72
2023/07/23 05:38:42;;;;;;;4.00;3.35;;;19.30;59.70;;;;;;5057524;28;20497;-71
2023/07/23 05:41:10;;;;;;;3.75;3.40;;;19.30;58.40;;;;;;5049035;28;20440;-73
2023/07/23 05:43:37;;;;;;;3.83;3.38;;;19.30;58.00;;;;;;5046833;28;20559;-74
2023/07/23 05:46:04;;;;;;;4.03;3.05;;;19.40;58.90;;;;;;5051061;28;20834;-72
2023/07/23 05:48:31;;;;;;;3.70;3.10;;;19.40;58.70;;;;;;5044467;28;20506;-70
2023/07/23 05:50:57;;;;;;;4.60;3.00;;;19.40;58.00;;;;;;5044424;28;20547;-73
2023/07/23 05:53:24;;;;;;;3.72;2.80;;;19.50;57.20;;;;;;5059570;28;20435;-71
2023/07/23 05:55:51;;;;;;;3.10;2.80;;;19.60;56.90;;;;;;5051749;28;20471;-71
2023/07/23 05:58:19;;;;;;;4.57;2.70;;;19.60;57.70;;;;;;5049186;28;20446;-72
2023/07/23 06:00:46;;;;;;;3.80;2.90;;;19.60;57.80;;;;;;5058431;28;20429;-73
2023/07/23 06:03:13;;;;;;;3.10;2.80;;;19.60;57.10;;;;;;5057040;28;20862;-72
2023/07/23 06:05:40;;;;;;;3.15;2.78;;;19.60;56.60;;;;;;5046926;28;20429;-73
2023/07/23 06:08:06;;;;;;;3.92;3.33;;;19.60;56.70;;;;;;5059076;28;20498;-75
2023/07/23 06:10:33;;;;;;;3.50;2.65;;;19.70;57.30;;;;;;5073524;22;20471;-74
2023/07/23 06:13:00;;;;;;;3.70;2.90;;;19.60;57.10;;;;;;5038312;28;20480;-74
2023/07/23 06:15:28;;;;;;;3.30;2.70;;;19.70;57.50;;;;;;5050520;28;20443;-73
2023/07/23 06:17:54;;;;;;;4.00;2.92;;;19.70;56.80;;;;;;5051290;28;20429;-73
2023/07/23 06:20:21;;;;;;;3.35;2.70;;;19.80;57.40;;;;;;5048627;28;20441;-73
2023/07/23 06:22:48;;;;;;;3.50;3.10;;;19.80;58.10;;;;;;5049135;28;20726;-75
2023/07/23 06:25:15;;;;;;;2.85;2.60;;;19.90;56.90;;;;;;5050349;28;20410;-74
2023/07/23 06:27:41;;;;;;;3.23;2.80;;;19.90;56.60;;;;;;5049847;28;20433;-74
2023/07/23 06:30:09;;;;;;;3.10;2.60;;;19.90;57.40;;;;;;5047584;28;20441;-74
2023/07/23 06:32:37;;;;;;;2.70;2.50;;;19.90;57.70;;;;;;5050687;28;20493;-74
2023/07/23 06:35:05;;;;;;;3.70;2.90;;;19.90;56.50;;;;;;5050769;28;20756;-74
2023/07/23 06:37:32;;;;;;;4.80;2.35;;;19.90;56.50;;;;;;5048599;28;20429;-74
2023/07/23 06:39:58;;;;;;;4.00;2.80;;;19.90;56.90;;;;;;5047997;28;20429;-74
2023/07/23 06:42:25;;;;;;;2.80;2.50;;;19.90;56.10;;;;;;5055189;28;20788;-74
2023/07/23 06:44:52;;;;;;;3.67;2.70;;;19.90;56.60;;;;;;5049470;28;20433;-75
2023/07/23 06:47:19;;;;;;;3.70;2.60;;;20.00;55.20;;;;;;5049978;28;20433;-74
2023/07/23 06:49:47;;;;;;;4.63;2.80;;;20.00;55.80;;;;;;5048566;28;20429;-74
2023/07/23 06:52:14;;;;;;;3.35;2.63;;;20.00;55.80;;;;;;5050345;28;20432;-74
2023/07/23 06:54:42;;;;;;;2.80;2.30;;;20.00;56.30;;;;;;5051958;28;20437;-74
2023/07/23 06:57:09;;;;;;;3.42;2.40;;;20.00;56.50;;;;;;5049766;28;20429;-75
2023/07/23 06:59:36;;;;;;;3.17;2.80;;;20.00;57.30;;;;;;5057565;28;20437;-73
2023/07/23 07:02:02;;;;;;;3.55;2.63;;;20.00;56.80;;;;;;5050178;28;20796;-73
2023/07/23 07:04:29;;;;;;;2.60;2.30;;;19.90;59.60;;;;;;5049768;28;20526;-70
2023/07/23 07:06:57;;;;;;;2.70;2.30;;;19.90;59.10;;;;;;5047904;28;20437;-72
2023/07/23 07:09:24;;;;;;;3.35;2.70;;;19.80;59.90;;;;;;5049671;28;20433;-72
2023/07/23 07:11:51;;;;;;;3.28;2.45;;;19.70;60.80;;;;;;5048824;28;20436;-72
2023/07/23 07:14:17;;;;;;;3.20;2.40;;;19.60;63.00;;;;;;5048146;28;20455;-72
2023/07/23 07:16:44;;;;;;;3.28;2.50;;;19.50;65.50;;;;;;5047497;28;20441;-71
2023/07/23 07:19:11;;;;;;;5.32;2.97;;;19.30;65.00;;;;;;5048087;28;20425;-72
2023/07/23 07:21:38;;;;;;;2.63;2.40;;;19.00;68.20;;;;;;5062926;28;20413;-72
2023/07/23 07:24:06;;;;;;;3.10;2.60;;;18.60;69.50;;;;;;5047131;28;20433;-71
2023/07/23 07:26:33;;;;;;;3.45;2.70;;;18.20;74.00;;;;;;5046998;28;20425;-70
2023/07/23 07:28:59;;;;;;;5.05;3.30;;;18.10;77.60;;;;;;5045414;28;20435;-71
2023/07/23 07:31:26;;;;;;;4.83;2.80;;;18.00;79.00;;;;;;5047862;28;20440;-71
2023/07/23 07:33:53;;;;;;;3.42;3.13;;;18.00;78.70;;;;;;5048724;28;20429;-71
2023/07/23 07:36:20;;;;;;;3.40;2.70;;;18.10;79.30;;;;;;5048539;28;20429;-72
2023/07/23 07:38:47;;;;;;;3.00;2.60;;;18.10;77.60;;;;;;5047877;28;20409;-72
2023/07/23 07:41:15;;;;;;;3.58;2.80;;;18.00;77.10;;;;;;5045765;28;20433;-71
2023/07/23 07:43:41;;;;;;;4.10;2.53;;;18.00;80.00;;;;;;5045165;28;20440;-73
2023/07/23 07:46:08;;;;;;;3.42;2.60;;;18.00;79.10;;;;;;5047900;28;20823;-72
2023/07/23 07:48:37;;;;;;;3.30;2.78;;;18.00;75.70;;;;;;5048867;28;21004;-72
2023/07/23 07:51:05;;;;;;;4.10;2.67;;;18.10;82.80;;;;;;5047271;28;20437;-73
2023/07/23 07:53:33;;;;;;;5.65;2.90;;;18.10;77.90;;;;;;5052136;28;20423;-72
2023/07/23 07:56:01;;;;;;;3.13;2.60;;;18.00;83.60;;;;;;5058463;28;20434;-73
2023/07/23 07:58:30;;;;;;;3.20;2.90;;;18.00;81.00;;;;;;5045287;28;20459;-73
2023/07/23 08:00:57;;;;;;;3.22;2.50;;;17.90;82.80;;;;;;5048233;28;20444;-73
2023/07/23 08:03:26;;;;;;;4.13;2.70;;;17.80;83.50;;;;;;5053475;28;20428;-73
2023/07/23 08:05:55;;;;;;;3.92;3.00;;;17.70;86.90;;;;;;5043857;28;20740;-72
2023/07/23 08:08:25;;;;;;;3.85;2.50;;;17.60;86.80;;;;;;5048364;28;20434;-72
2023/07/23 08:10:53;;;;;;;4.38;2.70;;;17.60;83.60;;;;;;5054492;28;20785;-71
2023/07/23 08:13:21;;;;;;;3.80;3.08;;;17.60;88.70;;;;;;5048128;28;20432;-72
2023/07/23 08:15:49;;;;;;;3.40;2.70;;;17.60;90.30;;;;;;5053892;28;20433;-72
2023/07/23 08:18:16;;;;;;;3.30;2.78;;;17.50;90.30;;;;;;5048300;28;20428;-72
2023/07/23 08:20:44;;;;;;;3.70;3.40;;;17.50;92.20;;;;;;5048684;28;20424;-72
2023/07/23 08:23:11;;;;;;;3.20;2.70;;;17.50;91.90;;;;;;5048130;28;20433;-72
2023/07/23 08:25:39;;;;;;;3.90;2.65;;;17.40;91.50;;;;;;5044661;28;20443;-70
2023/07/23 08:28:08;;;;;;;4.70;3.03;;;17.40;91.00;;;;;;5051206;28;20433;-69
2023/07/23 08:30:35;;;;;;;3.42;2.90;;;17.30;91.70;;;;;;5047575;28;20417;-71
2023/07/23 08:33:03;;;;;;;3.83;2.60;;;17.20;92.50;;;;;;5049868;28;20456;-71
2023/07/23 08:35:30;;;;;;;3.63;3.33;;;17.10;91.70;;;;;;5050229;28;20433;-71
2023/07/23 08:37:57;;;;;;;5.00;4.50;;;17.10;94.20;;;;;;5048947;28;20424;-71
2023/07/23 08:40:25;;;;;;;4.50;3.40;;;17.10;95.00;;;;;;5047728;28;20795;-69
2023/07/23 08:43:37;;;;;;;3.38;3.05;;;17.10;94.60;;;;;;5047910;28;20433;-69
2023/07/23 08:46:22;;;;;;;3.90;2.90;;;17.10;95.20;;;;;;4966187;28;20443;-69
2023/07/23 08:49:03;;;;;;;4.30;3.33;;;17.00;95.30;;;;;;5044415;28;20431;-71
2023/07/23 08:51:33;;;;;;;4.03;3.10;;;17.00;96.00;;;;;;5046352;28;20499;-70
2023/07/23 08:54:01;;;;;;;3.78;3.35;;;17.00;96.70;;;;;;5049412;28;20440;-70
2023/07/23 08:56:27;;;;;;;3.10;2.70;;;17.00;96.50;;;;;;5047952;28;20808;-70
2023/07/23 08:58:54;;;;;;;3.30;3.00;;;17.00;95.10;;;;;;5050132;28;20429;-69
2023/07/23 09:01:23;;;;;;;2.90;2.60;;;16.90;95.10;;;;;;5047788;28;20440;-69
2023/07/23 09:03:49;;;;;;;3.40;3.10;;;16.90;95.70;;;;;;5048061;28;20433;-71
2023/07/23 09:06:18;;;;;;;4.30;3.30;;;16.90;96.20;;;;;;5049809;28;20413;-72
2023/07/23 09:08:45;;;;;;;5.00;3.60;;;16.90;97.10;;;;;;5048683;28;20432;-72
2023/07/23 09:11:12;;;;;;;5.07;3.70;;;17.00;98.60;;;;;;5050518;28;20444;-71
2023/07/23 09:13:37;;;;;;;3.92;3.30;;;17.00;98.40;;;;;;5066410;28;20438;-71
2023/07/23 09:16:05;;;;;;;3.80;3.20;;;17.10;98.90;;;;;;5058054;28;20441;-70
2023/07/23 09:18:32;;;;;;;5.40;3.40;;;17.20;98.40;;;;;;5051563;28;20475;-69
2023/07/23 09:20:59;;;;;;;4.53;3.30;;;17.30;99.20;;;;;;5057306;28;20417;-72
2023/07/23 09:23:28;;;;;;;3.75;2.95;;;17.30;98.70;;;;;;5057861;28;20497;-70
2023/07/23 09:25:58;;;;;;;4.90;3.45;;;17.30;97.50;;;;;;5059225;28;20425;-71
2023/07/23 09:28:25;;;;;;;4.78;3.60;;;17.40;97.40;;;;;;5062252;28;20425;-70
2023/07/23 09:30:54;;;;;;;4.70;3.10;;;17.50;97.50;;;;;;5053767;28;20599;-71
2023/07/23 09:33:21;;;;;;;3.00;2.70;;;17.60;96.40;;;;;;5052669;28;20528;-68
2023/07/23 09:35:47;;;;;;;3.55;2.90;;;17.70;95.40;;;;;;5045291;28;20429;-68
2023/07/23 09:38:14;;;;;;;4.55;3.10;;;17.80;94.10;;;;;;5047598;28;20436;-70
2023/07/23 09:40:44;;;;;;;4.10;2.60;;;17.90;95.30;;;;;;5048358;28;20950;-71
2023/07/23 09:43:10;;;;;;;4.30;3.22;;;18.00;95.70;;;;;;5055374;28;20725;-71
2023/07/23 09:45:39;;;;;;;3.50;2.80;;;18.00;96.20;;;;;;5055984;28;20429;-69
2023/07/23 09:48:08;;;;;;;3.53;2.95;;;18.10;96.40;;;;;;5055853;28;20729;-71
2023/07/23 09:50:36;;;;;;;3.95;2.97;;;18.10;96.00;;;;;;5051203;28;20413;-71
2023/07/23 09:53:03;;;;;;;4.93;3.13;;;18.10;96.20;;;;;;5049055;28;20440;-70
2023/07/23 09:55:30;;;;;;;3.38;3.08;;;18.10;96.50;;;;;;5049170;28;21084;-72
2023/07/23 09:58:01;;;;;;;4.30;3.22;;;18.10;97.00;;;;;;5046952;28;20460;-70
2023/07/23 10:00:29;;;;;;;3.30;3.00;;;18.10;97.00;;;;;;5050172;28;20441;-71
2023/07/23 10:02:58;;;;;;;3.87;3.37;;;18.00;97.50;;;;;;5049247;28;20429;-71
2023/07/23 10:05:26;;;;;;;3.90;3.40;;;17.90;99.60;;;;;;5045890;28;20425;-70
2023/07/23 10:07:54;;;;;;;3.97;3.50;;;17.80;99.90;;;;;;5041654;28;20437;-72
2023/07/23 10:10:21;;;;;;;3.88;3.13;;;17.70;99.90;;;;;;5046813;28;20437;-72
2023/07/23 10:12:48;;;;;;;3.90;3.10;;;17.70;99.90;;;;;;5050650;28;20417;-70
2023/07/23 10:15:17;;;;;;;4.47;3.45;;;17.60;99.90;;;;;;5045399;28;20429;-70
2023/07/23 10:17:47;;;;;;;3.33;2.67;;;17.50;99.90;;;;;;5046997;28;20433;-70
2023/07/23 10:20:16;;;;;;;5.00;3.40;;;17.50;99.90;;;;;;5049999;28;20848;-70
2023/07/23 10:22:45;;;;;;;3.70;3.20;;;17.50;99.90;;;;;;5050465;28;20409;-70
2023/07/23 10:25:32;;;;;;;3.40;3.10;;;17.50;99.90;;;;;;5046466;28;20804;-71
2023/07/23 10:28:21;;;;;;;4.80;3.20;;;17.60;99.90;;;;;;5050550;28;20452;-71
2023/07/23 10:31:09;;;;;;;3.40;3.00;;;17.60;99.90;;;;;;5046619;28;20439;-70
2023/07/23 10:33:40;;;;;;;5.60;3.20;;;17.70;99.90;;;;;;5045708;28;20433;-70
2023/07/23 10:36:06;;;;;;;3.60;3.17;;;17.70;99.90;;;;;;5043804;28;20820;-71
2023/07/23 10:38:35;;;;;;;4.60;3.20;;;17.70;99.90;;;;;;5047267;28;20439;-68
2023/07/23 10:41:02;;;;;;;3.50;3.20;;;17.80;99.40;;;;;;5045527;28;20432;-69
2023/07/23 10:43:46;;;;;;;3.53;3.22;;;17.80;99.80;;;;;;5047125;28;20808;-70
2023/07/23 10:46:14;;;;;;;3.55;2.80;;;17.80;98.50;;;;;;5049030;28;20432;-70
2023/07/23 10:48:44;;;;;;;4.43;2.90;;;17.90;99.40;;;;;;5049117;28;20433;-70
2023/07/23 10:51:12;;;;;;;3.60;3.30;;;18.00;99.50;;;;;;5063327;28;20418;-69
2023/07/23 10:53:41;;;;;;;3.13;2.83;;;18.10;98.50;;;;;;5049274;28;20446;-70
2023/07/23 10:56:23;;;;;;;4.57;2.88;;;18.20;98.10;;;;;;5049964;28;20441;-69
2023/07/23 10:58:50;;;;;;;2.90;2.60;;;18.30;98.40;;;;;;5052351;28;20455;-71
2023/07/23 11:01:21;;;;;;;3.22;2.60;;;18.40;97.70;;;;;;5049551;28;20498;-70
2023/07/23 11:03:53;;;;;;;3.95;2.78;;;18.50;96.40;;;;;;5049790;28;20549;-69
2023/07/23 11:06:30;;;;;;;3.03;2.72;;;18.50;96.90;;;;;;5055808;28;20452;-69
2023/07/23 11:08:59;;;;;;;3.00;2.20;;;18.60;96.50;;;;;;5049731;28;20884;-69
2023/07/23 11:11:36;;;;;;;3.33;2.40;;;18.70;94.70;;;;;;5046639;28;20421;-70
2023/07/23 11:14:04;;;;;;;2.80;2.40;;;18.70;95.10;;;;;;5048622;28;20451;-71
2023/07/23 11:16:35;;;;;;;2.58;2.20;;;18.70;94.30;;;;;;5048145;28;20440;-70
2023/07/23 11:19:07;;;;;;;2.88;2.40;;;18.80;93.80;;;;;;5050795;28;20896;-71
2023/07/23 11:21:34;;;;;;;3.22;2.30;;;18.80;92.30;;;;;;5052991;28;20452;-70
2023/07/23 11:24:02;;;;;;;2.50;2.10;;;18.80;92.90;;;;;;5078231;28;20487;-69
2023/07/23 11:26:28;;;;;;;2.75;2.10;;;18.80;92.90;;;;;;5076144;28;21080;-69
2023/07/23 11:28:56;;;;;;;2.30;2.10;;;18.90;92.60;;;;;;5075754;28;20421;-76
2023/07/23 11:31:24;;;;;;;2.80;2.20;;;19.10;92.10;;;;;;5049510;28;20422;-68
2023/07/23 11:33:51;;;;;;;2.50;1.93;;;19.10;92.10;;;;;;5045712;28;20490;-72
2023/07/23 11:36:19;;;;;;;2.90;2.20;;;19.20;92.20;;;;;;5044010;28;20429;-69
2023/07/23 11:38:46;;;;;;;2.50;2.20;;;19.30;90.20;;;;;;5042677;28;20487;-71
2023/07/23 11:41:12;;;;;;;3.00;1.92;;;19.40;91.00;;;;;;5049785;28;20807;-70
2023/07/23 11:43:40;;;;;;;4.95;1.88;;;19.50;90.30;;;;;;5046170;28;21014;-69
2023/07/23 11:46:06;;;;;;;2.40;1.75;;;19.50;91.00;;;;;;5064304;28;20425;-69
2023/07/23 11:48:33;;;;;;;1.60;1.40;;;19.70;89.20;;;;;;5070401;28;20425;-69
2023/07/23 11:51:02;;;;;;;2.33;1.40;;;19.70;87.30;;;;;;5072169;28;20409;-70
2023/07/23 11:53:36;;;;;;;2.22;1.50;;;19.70;87.50;;;;;;5066515;28;20436;-69
2023/07/23 11:56:07;;;;;;;1.77;1.30;;;19.80;87.00;;;;;;5071705;28;20492;-71
2023/07/23 11:58:35;;;;;;;1.77;1.40;;;19.90;87.10;;;;;;5062541;28;21060;-69
2023/07/23 12:01:02;;;;;;;2.20;1.30;;;19.90;88.10;;;;;;5049225;28;20433;-69
2023/07/23 12:03:29;;;;;;;1.75;1.40;;;20.00;85.10;;;;;;5049326;28;20420;-70
2023/07/23 12:05:56;;;;;;;1.95;1.30;;;20.20;85.10;;;;;;5045010;28;20433;-69
2023/07/23 12:08:23;;;;;;;2.45;1.10;;;20.20;83.70;;;;;;5047451;28;20444;-68
2023/07/23 12:10:51;;;;;;;2.00;1.30;;;20.20;87.60;;;;;;5047884;28;20423;-68
2023/07/23 12:13:18;;;;;;;1.85;1.60;;;20.00;84.70;;;;;;5048036;28;20409;-69
2023/07/23 12:15:54;;;;;;;1.90;1.35;;;20.00;84.30;;;;;;5046878;28;20941;-68
2023/07/23 12:18:21;;;;;;;1.40;1.20;;;20.00;84.60;;;;;;5048229;28;20427;-68
2023/07/23 12:20:48;;;;;;;2.80;1.40;;;20.10;84.60;;;;;;5045391;28;20439;-68
2023/07/23 12:23:15;;;;;;;2.10;1.30;;;20.20;83.50;;;;;;5046952;28;20421;-71
2023/07/23 12:25:42;;;;;;;1.63;1.30;;;20.30;82.10;;;;;;5045456;28;20440;-70
2023/07/23 12:28:10;;;;;;;2.60;1.60;;;20.40;81.80;;;;;;5046390;28;20903;-70
2023/07/23 12:30:36;;;;;;;1.50;1.25;;;20.50;82.10;;;;;;5048056;28;20457;-66
2023/07/23 12:33:04;;;;;;;2.30;1.17;;;20.60;81.00;;;;;;5048253;28;20824;-67
2023/07/23 12:35:30;;;;;;;1.70;1.10;;;20.60;82.50;;;;;;5048021;28;20465;-67
2023/07/23 12:37:57;;;;;;;2.80;1.50;;;20.60;82.00;;;;;;5047980;28;20804;-65
2023/07/23 12:40:24;;;;;;;1.50;1.20;;;20.60;79.50;;;;;;5046565;28;20433;-66
2023/07/23 12:42:51;;;;;;;1.50;1.30;;;20.80;78.50;;;;;;5044033;28;21037;-67
2023/07/23 12:45:19;;;;;;;1.27;1.10;;;20.80;78.70;;;;;;5047452;28;20417;-67
2023/07/23 12:47:45;;;;;;;2.75;1.30;;;20.90;79.50;;;;;;5043504;28;20456;-67
2023/07/23 12:50:12;;;;;;;1.95;1.20;;;21.00;79.40;;;;;;5044399;28;20518;-66